Time;durP1;ratioP1;P1;durP2;ratioP2;P2;SDS_P1;SDS_P2;PMS_P1;PMS_P2;Temp;Humidity;BMP_temperature;BMP_pressure;BME280_temperature;BME280_humidity;BME280_pressure;Samples;Min_cycle;Max_cycle;Signal;HPM_P1;HPM_P2
2022/09/10 00:01:13;;;;;;;19.45;10.13;;;;;;;20.82;62.33;95027.69;5088470;28;20048;-89
2022/09/10 00:03:39;;;;;;;29.15;10.15;;;;;;;20.60;62.26;94993.94;5086779;28;20120;-89
2022/09/10 00:06:06;;;;;;;27.13;10.35;;;;;;;21.13;62.16;95085.19;5086107;28;20465;-89
2022/09/10 00:08:33;;;;;;;18.73;9.40;;;;;;;21.18;62.06;95093.09;5067539;28;20052;-89
2022/09/10 00:11:06;;;;;;;14.95;9.15;;;;;;;21.82;61.78;95177.69;5085777;28;20032;-89
2022/09/10 00:13:32;;;;;;;13.50;9.55;;;;;;;21.68;62.39;95175.41;5067323;28;20050;-89
2022/09/10 00:16:03;;;;;;;18.77;9.88;;;;;;;21.69;62.49;95190.47;5085413;28;20391;-89
2022/09/10 00:18:30;;;;;;;17.35;10.60;;;;;;;20.82;62.18;95041.16;5066373;28;20429;-89
2022/09/10 00:20:57;;;;;;;20.20;9.75;;;;;;;21.06;63.33;95121.94;5067434;28;20040;-89
2022/09/10 00:23:26;;;;;;;20.40;10.75;;;;;;;21.48;63.21;95184.47;5065733;28;20139;-89
2022/09/10 00:25:53;;;;;;;18.73;10.57;;;;;;;21.13;62.73;95112.16;5049867;28;20047;-89
2022/09/10 00:28:21;;;;;;;19.23;10.77;;;;;;;21.39;62.58;95136.06;5067176;28;20036;-89
2022/09/10 00:30:49;;;;;;;23.42;9.98;;;;;;;21.71;62.74;95182.81;5057357;28;20095;-89
2022/09/10 00:33:17;;;;;;;22.42;10.48;;;;;;;21.46;62.41;95154.34;5061281;28;20426;-89
2022/09/10 00:35:42;;;;;;;20.80;10.35;;;;;;;19.99;62.52;94919.41;5084916;28;20044;-89
2022/09/10 00:38:10;;;;;;;22.60;10.00;;;;;;;20.74;63.41;95084.09;5065972;28;20046;-89
2022/09/10 00:40:36;;;;;;;19.15;10.45;;;;;;;21.69;62.79;95187.78;5066848;28;20044;-89
2022/09/10 00:43:02;;;;;;;23.15;11.07;;;;;;;19.05;62.37;94767.41;5066373;28;20044;-89
2022/09/10 00:45:32;;;;;;;14.35;10.00;;;;;;;21.51;62.45;95151.44;5084562;28;20051;-89
2022/09/10 00:48:21;;;;;;;20.25;11.25;;;;;;;20.48;62.03;95004.75;5066533;28;20035;-89
2022/09/10 00:50:50;;;;;;;16.10;10.35;;;;;;;21.85;61.84;95183.22;5065692;28;20040;-89
2022/09/10 00:53:20;;;;;;;16.58;10.27;;;;;;;21.89;61.88;95181.38;5065412;28;20059;-89
2022/09/10 00:55:49;;;;;;;17.25;10.18;;;;;;;21.92;61.65;95180.69;5065420;28;20052;-89
2022/09/10 00:58:18;;;;;;;17.92;9.60;;;;;;;21.24;61.32;95055.88;5068212;28;20457;-89
2022/09/10 01:00:43;;;;;;;23.50;10.23;;;;;;;21.48;61.37;95090.03;5068502;28;20043;-89
2022/09/10 01:03:12;;;;;;;17.98;9.82;;;;;;;20.86;61.46;95004.31;5066374;28;20036;-89
2022/09/10 01:05:41;;;;;;;22.30;10.75;;;;;;;21.73;61.39;95131.19;5084499;28;20400;-89
2022/09/10 01:08:18;;;;;;;25.20;10.65;;;;;;;20.35;61.30;94910.53;5066800;28;20047;-89
2022/09/10 01:10:52;;;;;;;18.17;11.13;;;;;;;20.90;61.73;95024.06;5069945;28;20071;-89
2022/09/10 01:13:39;;;;;;;20.25;10.70;;;;;;;21.84;62.11;95165.44;5066712;28;20071;-89
2022/09/10 01:16:04;;;;;;;22.58;10.27;;;;;;;21.84;62.44;95160.03;5065765;28;20073;-89
2022/09/10 01:18:43;;;;;;;24.92;10.20;;;;;;;21.59;62.35;95126.19;5065607;28;20476;-89
2022/09/10 01:21:32;;;;;;;22.83;10.40;;;;;;;21.80;62.48;95150.28;5064263;28;20082;-89
2022/09/10 01:24:16;;;;;;;17.45;10.82;;;;;;;21.89;62.67;95167.88;5065306;28;20071;-89
2022/09/10 01:27:19;;;;;;;21.60;10.77;;;;;;;21.71;62.79;95166.63;5065624;28;20527;-89
2022/09/10 01:29:53;;;;;;;16.67;10.25;;;;;;;21.27;62.51;95076.78;5065538;28;20040;-89
2022/09/10 01:32:37;;;;;;;17.17;10.75;;;;;;;21.84;62.60;95151.94;5065539;28;20055;-90
2022/09/10 01:35:03;;;;;;;13.40;10.10;;;;;;;21.89;63.05;95153.63;5064540;28;20055;-89
2022/09/10 01:37:30;;;;;;;22.75;10.52;;;;;;;20.82;63.44;95022.31;5083017;28;20043;-90
2022/09/10 01:39:57;;;;;;;16.08;11.50;;;;;;;21.73;63.38;95144.69;5068091;28;20044;-89
2022/09/10 01:42:25;;;;;;;25.77;11.07;;;;;;;21.83;63.04;95154.97;5070446;28;20040;-89
2022/09/10 01:44:53;;;;;;;22.20;9.82;;;;;;;20.15;63.34;94902.56;5077877;28;20036;-89
2022/09/10 01:47:56;;;;;;;25.27;11.35;;;;;;;21.80;63.40;95142.97;5087320;28;20039;-90
2022/09/10 01:50:40;;;;;;;21.63;11.30;;;;;;;21.78;63.63;95147.94;5071870;28;20052;-89
2022/09/10 01:53:18;;;;;;;17.08;11.18;;;;;;;21.81;63.57;95144.53;5070891;28;20043;-89
2022/09/10 01:55:52;;;;;;;19.75;10.85;;;;;;;21.85;63.55;95152.72;5070097;28;20112;-89
2022/09/10 01:58:25;;;;;;;18.15;11.38;;;;;;;21.86;63.12;95157.78;5075005;28;20101;-89
2022/09/10 02:01:22;;;;;;;19.02;11.27;;;;;;;21.84;62.85;95157.34;5076333;28;20675;-89
2022/09/10 02:03:51;;;;;;;15.45;10.40;;;;;;;21.11;64.08;95076.69;5067813;28;20097;-89
2022/09/10 02:06:21;;;;;;;17.50;10.98;;;;;;;21.36;63.64;95101.66;5067100;28;20050;-89
2022/09/10 02:08:50;;;;;;;19.77;10.75;;;;;;;21.02;63.24;95049.06;5085962;28;20535;-89
2022/09/10 02:11:16;;;;;;;27.48;10.52;;;;;;;21.28;63.83;95134.19;5066797;28;20506;-89
2022/09/10 02:13:41;;;;;;;20.85;10.95;;;;;;;20.59;64.86;95079.38;5065320;28;20096;-89
2022/09/10 02:16:11;;;;;;;24.05;10.57;;;;;;;20.49;65.95;95098.69;5066737;28;20078;-89
2022/09/10 02:18:38;;;;;;;26.50;11.25;;;;;;;20.39;65.08;95032.59;5065895;28;20495;-89
2022/09/10 02:21:05;;;;;;;19.95;10.82;;;;;;;21.31;65.00;95155.06;5065450;28;20820;-89
2022/09/10 02:23:41;;;;;;;17.40;11.15;;;;;;;21.10;64.72;95112.06;5065337;28;20039;-90
2022/09/10 02:26:07;;;;;;;18.63;11.13;;;;;;;20.87;64.72;95065.19;5066151;28;20094;-89
2022/09/10 02:28:33;;;;;;;18.13;11.07;;;;;;;19.77;64.32;94895.66;5064672;28;20075;-89
2022/09/10 02:30:59;;;;;;;19.85;11.27;;;;;;;21.16;64.34;95098.03;5064914;28;20772;-89
2022/09/10 02:33:24;;;;;;;24.38;11.70;;;;;;;21.36;64.58;95152.91;5065310;28;20044;-89
2022/09/10 02:35:50;;;;;;;18.50;10.82;;;;;;;20.59;64.16;95014.72;5064314;28;20504;-89
2022/09/10 02:38:17;;;;;;;25.67;12.32;;;;;;;19.07;64.00;94768.63;5064311;28;20032;-89
2022/09/10 02:40:42;;;;;;;17.23;10.63;;;;;;;19.92;64.23;94903.06;5067144;28;20044;-89
2022/09/10 02:43:08;;;;;;;20.55;11.38;;;;;;;20.75;63.93;95020.94;5068056;28;20044;-90
2022/09/10 02:45:35;;;;;;;17.50;11.07;;;;;;;20.81;64.11;95037.69;5068424;28;20058;-90
2022/09/10 02:48:03;;;;;;;17.38;10.32;;;;;;;21.15;64.10;95091.03;5068376;28;20047;-89
2022/09/10 02:50:28;;;;;;;17.92;10.88;;;;;;;21.75;63.63;95172.09;5068430;28;20536;-90
2022/09/10 02:52:54;;;;;;;18.27;11.60;;;;;;;21.68;63.97;95166.53;5068216;28;20034;-89
2022/09/10 02:55:19;;;;;;;21.08;10.95;;;;;;;20.06;63.83;94910.00;5068262;28;20044;-89
2022/09/10 02:57:45;;;;;;;22.52;11.63;;;;;;;19.82;63.96;94868.56;5088517;28;20051;-89
2022/09/10 03:00:11;;;;;;;17.25;10.77;;;;;;;21.04;64.13;95078.38;5069647;28;20150;-89
2022/09/10 03:02:36;;;;;;;19.92;11.15;;;;;;;21.21;65.01;95115.88;5068548;28;20079;-89
2022/09/10 03:05:03;;;;;;;17.48;10.85;;;;;;;20.51;65.43;95022.94;5068698;28;20500;-89
2022/09/10 03:07:30;;;;;;;25.48;11.52;;;;;;;20.41;64.56;94984.56;5068193;28;20044;-89
2022/09/10 03:09:55;;;;;;;21.30;11.52;;;;;;;20.32;65.17;95010.81;5068764;28;20214;-89
2022/09/10 03:12:21;;;;;;;29.42;11.68;;;;;;;21.03;66.14;95165.78;5067827;28;20113;-89
2022/09/10 03:14:47;;;;;;;20.13;11.25;;;;;;;21.22;66.31;95176.78;5067843;28;20076;-89
2022/09/10 03:17:13;;;;;;;17.40;10.93;;;;;;;21.03;65.67;95122.66;5067922;28;20047;-89
2022/09/10 03:19:38;;;;;;;17.30;11.13;;;;;;;20.72;64.86;95039.72;5086152;28;20125;-89
2022/09/10 03:22:05;;;;;;;23.05;11.35;;;;;;;21.63;64.62;95172.97;5086610;28;20047;-89
2022/09/10 03:24:30;;;;;;;20.40;11.07;;;;;;;19.91;64.66;94924.94;5066939;28;20391;-89
2022/09/10 03:26:56;;;;;;;22.88;11.32;;;;;;;20.53;64.60;94985.66;5067993;28;20137;-89
2022/09/10 03:29:25;;;;;;;18.95;11.32;;;;;;;20.34;64.93;94959.34;5086356;28;20047;-89
2022/09/10 03:31:50;;;;;;;20.98;11.00;;;;;;;19.46;65.05;94815.53;5067792;28;20063;-89
2022/09/10 03:34:19;;;;;;;28.38;11.68;;;;;;;21.55;64.61;95115.31;5068119;28;20032;-89
2022/09/10 03:36:47;;;;;;;26.73;11.80;;;;;;;21.17;63.92;95056.47;5068558;28;20043;-89
2022/09/10 03:39:15;;;;;;;18.25;11.02;;;;;;;21.50;64.42;95114.78;5069345;28;20040;-89
2022/09/10 03:41:41;;;;;;;21.70;12.10;;;;;;;21.37;64.29;95108.63;5067521;28;20052;-89
2022/09/10 03:44:06;;;;;;;24.40;11.32;;;;;;;19.80;64.70;94878.06;5085879;28;20031;-90
2022/09/10 03:46:32;;;;;;;27.70;11.98;;;;;;;20.97;65.13;95070.09;5067359;28;20142;-90
2022/09/10 03:49:01;;;;;;;15.10;10.35;;;;;;;19.37;65.16;94808.72;5086080;28;20072;-89
2022/09/10 03:51:28;;;;;;;19.45;11.35;;;;;;;19.92;65.17;94883.44;5068007;28;20044;-90
2022/09/10 03:53:53;;;;;;;20.88;11.48;;;;;;;21.46;65.27;95127.38;5067942;28;20050;-89
2022/09/10 03:56:19;;;;;;;23.65;11.85;;;;;;;21.71;65.33;95144.25;5067619;28;20178;-89
2022/09/10 03:58:47;;;;;;;30.13;11.32;;;;;;;20.98;65.43;95039.31;5068412;28;20039;-89
2022/09/10 04:01:14;;;;;;;17.95;10.95;;;;;;;20.49;65.47;94972.09;5077433;28;20032;-90
2022/09/10 04:03:40;;;;;;;16.50;10.70;;;;;;;20.96;65.18;95023.47;5056794;28;20147;-89
2022/09/10 04:06:09;;;;;;;21.80;11.57;;;;;;;21.07;65.15;95045.34;5057129;28;20040;-89
2022/09/10 04:08:35;;;;;;;19.15;11.23;;;;;;;20.92;64.99;95052.22;5061698;28;20101;-89
2022/09/10 04:11:02;;;;;;;15.85;10.85;;;;;;;20.74;65.15;95030.19;5053215;28;20040;-89
2022/09/10 04:13:27;;;;;;;23.83;11.25;;;;;;;20.81;65.44;95059.25;5046874;28;20414;-89
2022/09/10 04:15:54;;;;;;;22.65;11.25;;;;;;;20.94;65.42;95078.84;5047480;28;20048;-90
2022/09/10 04:18:20;;;;;;;26.10;11.98;;;;;;;20.98;65.80;95087.84;5046406;28;20051;-90
2022/09/10 04:20:46;;;;;;;15.10;10.63;;;;;;;21.27;66.21;95130.72;5046818;28;20037;-89
2022/09/10 04:23:13;;;;;;;19.10;10.77;;;;;;;21.42;65.81;95143.47;5046807;28;20300;-89
2022/09/10 04:25:39;;;;;;;18.95;11.63;;;;;;;20.55;65.73;95007.66;5046170;28;20538;-89
2022/09/10 04:28:05;;;;;;;18.98;10.57;;;;;;;21.01;66.12;95114.91;5046944;28;20048;-89
2022/09/10 04:30:30;;;;;;;27.98;13.00;;;;;;;20.76;65.75;95071.03;5046769;28;20036;-89
2022/09/10 04:32:55;;;;;;;28.73;12.52;;;;;;;19.16;65.83;94833.03;5065731;28;20122;-89
2022/09/10 04:35:21;;;;;;;23.95;12.40;;;;;;;21.40;65.83;95194.28;5047131;28;20783;-90
2022/09/10 04:37:46;;;;;;;26.55;11.52;;;;;;;20.63;67.28;95161.09;5046876;28;20044;-89
2022/09/10 04:40:12;;;;;;;25.95;11.95;;;;;;;20.88;66.72;95136.84;5065479;28;20139;-89
2022/09/10 04:42:37;;;;;;;28.02;11.88;;;;;;;20.79;65.96;95091.13;5065099;28;20072;-89
2022/09/10 04:45:04;;;;;;;27.20;13.10;;;;;;;21.44;65.60;95168.19;5064698;28;20052;-89
2022/09/10 04:47:30;;;;;;;22.95;11.98;;;;;;;21.40;66.13;95169.22;5045614;28;20109;-89
2022/09/10 04:49:55;;;;;;;26.83;12.15;;;;;;;21.13;66.12;95119.50;5047472;28;20040;-89
2022/09/10 04:52:21;;;;;;;22.15;10.98;;;;;;;20.80;66.21;95069.25;5046736;28;20586;-89
2022/09/10 04:54:48;;;;;;;25.80;12.18;;;;;;;21.52;66.17;95155.66;5070095;28;20036;-90
2022/09/10 04:57:13;;;;;;;19.42;11.30;;;;;;;20.13;65.92;94935.22;5070997;28;20134;-90
2022/09/10 04:59:39;;;;;;;25.20;11.95;;;;;;;20.63;67.07;95009.44;5068266;28;20135;-90
2022/09/10 05:02:05;;;;;;;24.45;12.13;;;;;;;20.14;68.32;94941.41;5084842;28;20123;-90
2022/09/10 05:04:31;;;;;;;21.52;11.73;;;;;;;20.84;68.53;95057.75;5066538;28;20032;-90
2022/09/10 05:06:58;;;;;;;26.60;13.07;;;;;;;20.25;68.50;94972.88;5085477;28;20126;-90
2022/09/10 05:09:23;;;;;;;22.42;13.13;;;;;;;21.31;68.86;95126.19;5066408;28;20453;-90
2022/09/10 05:11:49;;;;;;;23.52;13.73;;;;;;;21.24;69.44;95107.09;5085210;28;20040;-90
2022/09/10 05:14:15;;;;;;;24.48;13.75;;;;;;;20.32;69.46;94958.84;5066631;28;20039;-90
2022/09/10 05:16:42;;;;;;;20.52;13.90;;;;;;;20.74;70.14;95037.47;5066764;28;20047;-89
2022/09/10 05:19:07;;;;;;;33.13;13.63;;;;;;;21.03;70.40;95082.22;5067869;28;20090;-89
2022/09/10 05:21:33;;;;;;;26.08;13.65;;;;;;;21.09;69.42;95091.63;5066430;28;20063;-90
2022/09/10 05:23:58;;;;;;;28.15;13.50;;;;;;;20.76;69.88;95072.94;5067048;28;20115;-89
2022/09/10 05:26:24;;;;;;;26.50;14.35;;;;;;;20.92;70.08;95130.41;5084710;28;20036;-90
2022/09/10 05:28:52;;;;;;;27.90;14.75;;;;;;;21.17;70.89;95174.31;5084457;28;20047;-90
2022/09/10 05:31:17;;;;;;;27.67;14.57;;;;;;;20.80;70.71;95081.94;5067085;28;20422;-90
2022/09/10 05:33:43;;;;;;;35.55;14.98;;;;;;;19.99;69.44;94954.41;5066244;28;20113;-89
2022/09/10 05:36:09;;;;;;;31.65;14.90;;;;;;;19.79;68.74;94917.66;5066698;28;20044;-90
2022/09/10 05:38:35;;;;;;;28.23;14.43;;;;;;;19.95;67.93;94931.19;5066895;28;20131;-90
2022/09/10 05:41:00;;;;;;;24.25;12.25;;;;;;;21.47;67.24;95139.72;5065856;28;20126;-90
2022/09/10 05:43:26;;;;;;;26.13;13.50;;;;;;;21.34;66.23;95114.72;5065547;28;20051;-90
2022/09/10 05:45:52;;;;;;;31.35;12.38;;;;;;;21.80;65.66;95175.38;5066339;28;20052;-90
2022/09/10 05:48:18;;;;;;;23.05;12.75;;;;;;;21.83;65.10;95173.88;5065686;28;20048;-89
2022/09/10 05:50:44;;;;;;;23.33;12.13;;;;;;;21.43;65.18;95114.59;5066258;28;20561;-89
2022/09/10 05:53:10;;;;;;;24.83;13.00;;;;;;;21.06;64.58;95035.66;5065990;28;20044;-90
2022/09/10 05:55:36;;;;;;;19.05;10.98;;;;;;;21.25;64.28;95059.34;5067625;28;20048;-89
2022/09/10 05:58:01;;;;;;;17.63;11.43;;;;;;;20.13;63.92;94896.75;5086109;28;20127;-90
2022/09/10 06:00:27;;;;;;;24.10;11.13;;;;;;;20.58;63.75;94964.66;5066032;28;20052;-90
2022/09/10 06:02:53;;;;;;;16.23;10.75;;;;;;;20.05;62.99;94868.84;5065936;28;20086;-90
2022/09/10 06:05:22;;;;;;;18.58;11.13;;;;;;;21.27;62.59;95060.59;5066521;28;20079;-90
2022/09/10 06:07:48;;;;;;;22.83;11.70;;;;;;;20.90;62.47;95024.06;5065936;28;20050;-89
2022/09/10 06:10:14;;;;;;;22.35;11.45;;;;;;;21.44;62.30;95081.84;5066716;28;20714;-90
2022/09/10 06:12:48;;;;;;;22.58;11.70;;;;;;;21.00;61.92;94985.81;5066955;28;20146;-89
2022/09/10 06:15:14;;;;;;;21.70;10.80;;;;;;;21.87;61.48;95116.16;5070386;28;20051;-90
2022/09/10 06:17:40;;;;;;;19.15;11.05;;;;;;;21.99;61.40;95119.94;5069618;28;20059;-90
2022/09/10 06:20:06;;;;;;;16.90;10.50;;;;;;;21.89;60.90;95080.72;5070482;28;20086;-90
2022/09/10 06:22:34;;;;;;;23.45;11.30;;;;;;;21.08;60.36;94960.63;5069510;28;20067;-90
2022/09/10 06:24:59;;;;;;;25.35;11.88;;;;;;;20.26;60.75;94825.56;5068652;28;20067;-90
2022/09/10 06:27:25;;;;;;;19.92;10.50;;;;;;;22.48;60.42;95152.81;5069175;28;20043;-90
2022/09/10 06:29:51;;;;;;;17.98;11.32;;;;;;;21.90;60.85;95053.34;5069210;28;20047;-90
2022/09/10 06:32:17;;;;;;;21.00;12.27;;;;;;;21.65;61.07;95021.50;5069273;28;20055;-91
2022/09/10 06:34:42;;;;;;;21.20;11.27;;;;;;;20.97;61.32;94905.66;5068955;28;20510;-90
2022/09/10 06:37:08;;;;;;;20.25;12.05;;;;;;;22.02;62.59;95111.16;5069616;28;20085;-90
2022/09/10 06:39:34;;;;;;;24.20;11.30;;;;;;;22.13;62.21;95125.69;5087644;28;20047;-90
2022/09/10 06:42:00;;;;;;;19.60;11.57;;;;;;;21.75;61.79;95045.25;5069031;28;20048;-90
2022/09/10 06:44:28;;;;;;;18.92;11.52;;;;;;;21.07;61.61;94942.88;5068752;28;20151;-90
2022/09/10 06:46:53;;;;;;;21.60;12.63;;;;;;;22.11;61.27;95123.38;5070360;28;20684;-90
2022/09/10 06:49:20;;;;;;;20.85;12.02;;;;;;;22.36;60.87;95134.75;5069271;28;20162;-90
2022/09/10 06:51:48;;;;;;;23.52;12.52;;;;;;;22.52;60.99;95159.09;5069157;28;20123;-90
2022/09/10 06:54:13;;;;;;;19.75;13.63;;;;;;;22.55;61.33;95164.59;5072230;28;20067;-90
2022/09/10 06:56:40;;;;;;;23.30;13.05;;;;;;;21.98;61.50;95061.66;5069232;28;20048;-90
2022/09/10 06:59:07;;;;;;;20.83;13.27;;;;;;;22.57;61.40;95165.03;5068675;28;20520;-90
2022/09/10 07:01:33;;;;;;;23.60;12.95;;;;;;;21.48;61.13;94979.44;5068049;28;20061;-90
2022/09/10 07:04:00;;;;;;;29.45;13.55;;;;;;;22.65;61.24;95168.69;5068786;28;20067;-90
2022/09/10 07:06:27;;;;;;;19.73;13.25;;;;;;;22.10;60.95;95072.41;5068791;28;20047;-90
2022/09/10 07:08:55;;;;;;;26.90;13.85;;;;;;;21.59;60.57;95015.53;5069829;28;20883;-89
2022/09/10 07:11:20;;;;;;;25.63;13.43;;;;;;;22.47;61.29;95162.06;5067729;28;20043;-89
2022/09/10 07:13:49;;;;;;;24.40;14.07;;;;;;;22.37;61.13;95163.34;5065540;28;20044;-89
2022/09/10 07:16:18;;;;;;;23.08;13.05;;;;;;;21.60;61.53;95079.19;5068122;28;20131;-89
2022/09/10 07:18:44;;;;;;;26.92;13.68;;;;;;;21.60;61.20;95035.22;5069088;28;20040;-89
2022/09/10 07:21:12;;;;;;;23.45;14.13;;;;;;;20.90;61.23;94911.66;5068372;28;20545;-89
2022/09/10 07:23:39;;;;;;;23.20;12.48;;;;;;;22.60;61.56;95171.63;5068092;28;20039;-89
2022/09/10 07:26:08;;;;;;;18.23;12.35;;;;;;;22.27;61.04;95112.56;5068208;28;20062;-89
2022/09/10 07:28:35;;;;;;;21.08;13.00;;;;;;;22.43;60.45;95109.84;5068553;28;20062;-89
2022/09/10 07:31:13;;;;;;;19.50;11.25;;;;;;;21.16;60.15;94898.47;5068206;28;20124;-89
2022/09/10 07:33:39;;;;;;;22.23;12.20;;;;;;;21.18;59.56;94917.81;5068253;28;20047;-89
2022/09/10 07:36:05;;;;;;;24.42;11.68;;;;;;;22.63;59.49;95130.41;5068889;28;20040;-90
2022/09/10 07:38:31;;;;;;;22.35;12.40;;;;;;;22.26;59.19;95062.38;5068431;28;20052;-89
2022/09/10 07:40:59;;;;;;;19.77;11.23;;;;;;;22.88;58.83;95166.16;5088012;28;20834;-89
2022/09/10 07:43:24;;;;;;;16.10;10.52;;;;;;;22.96;58.35;95165.19;5069108;28;20075;-89
2022/09/10 07:45:50;;;;;;;24.63;11.57;;;;;;;22.48;58.08;95086.06;5068821;28;20068;-89
2022/09/10 07:48:15;;;;;;;18.30;10.85;;;;;;;22.50;57.69;95101.91;5069803;28;20071;-89
2022/09/10 07:50:41;;;;;;;25.13;11.05;;;;;;;22.42;57.72;95083.97;5074860;28;20130;-89
2022/09/10 07:53:06;;;;;;;22.85;10.82;;;;;;;22.70;57.45;95104.31;5074396;28;20043;-89
2022/09/10 07:55:31;;;;;;;25.63;11.00;;;;;;;22.44;57.22;95063.56;5067708;28;20086;-90
2022/09/10 07:57:57;;;;;;;22.90;10.50;;;;;;;22.13;57.16;95007.66;5068844;28;20036;-89
2022/09/10 08:00:22;;;;;;;17.48;11.88;;;;;;;22.36;57.08;95017.81;5067528;28;20130;-89
2022/09/10 08:02:48;;;;;;;20.08;11.57;;;;;;;23.38;57.01;95166.09;5069341;28;20109;-89
2022/09/10 08:05:14;;;;;;;26.35;11.48;;;;;;;23.36;56.81;95160.25;5068530;28;20055;-90
2022/09/10 08:07:40;;;;;;;18.95;11.77;;;;;;;23.08;56.89;95119.88;5068530;28;20040;-89
2022/09/10 08:10:08;;;;;;;23.42;11.63;;;;;;;23.46;56.82;95165.13;5069096;28;20074;-89
2022/09/10 08:12:35;;;;;;;24.08;11.93;;;;;;;22.71;56.76;95065.34;5069124;28;20055;-89
2022/09/10 08:15:01;;;;;;;23.58;12.13;;;;;;;22.86;56.53;95085.38;5068865;28;20097;-90
2022/09/10 08:17:30;;;;;;;20.75;11.80;;;;;;;23.37;56.87;95169.94;5069177;28;20040;-89
2022/09/10 08:19:56;;;;;;;24.85;12.65;;;;;;;23.12;56.72;95132.66;5052265;28;20043;-89
2022/09/10 08:22:21;;;;;;;23.60;12.13;;;;;;;21.89;56.36;94899.84;5068675;28;20458;-90
2022/09/10 08:24:47;;;;;;;32.47;13.05;;;;;;;23.16;56.64;95109.19;5068158;28;20043;-89
2022/09/10 08:27:14;;;;;;;22.02;12.52;;;;;;;22.40;56.71;94997.84;5067332;28;20526;-89
2022/09/10 08:29:41;;;;;;;22.50;11.90;;;;;;;23.73;56.28;95159.84;5067833;28;20040;-90
2022/09/10 08:32:06;;;;;;;18.48;12.50;;;;;;;23.81;56.36;95148.81;5067613;28;20048;-89
2022/09/10 08:34:33;;;;;;;25.13;13.00;;;;;;;22.69;56.14;94969.50;5068164;28;20819;-89
2022/09/10 08:36:59;;;;;;;18.10;12.15;;;;;;;22.00;55.11;94838.78;5087247;28;20131;-89
2022/09/10 08:39:24;;;;;;;21.08;11.07;;;;;;;24.04;54.67;95105.50;5068433;28;20581;-90
2022/09/10 08:41:56;;;;;;;19.48;11.90;;;;;;;21.12;54.66;94640.66;5067989;28;20040;-89
2022/09/10 08:44:39;;;;;;;20.92;12.35;;;;;;;24.37;54.56;95133.97;5067381;28;20418;-89
2022/09/10 08:47:11;;;;;;;21.13;11.48;;;;;;;24.64;53.85;95138.28;5067338;28;20047;-89
2022/09/10 08:49:52;;;;;;;16.83;10.55;;;;;;;24.75;53.62;95116.75;5069338;28;20505;-89
2022/09/10 08:52:40;;;;;;;17.38;11.88;;;;;;;24.83;53.42;95116.50;5067956;28;20143;-91
2022/09/10 08:55:06;;;;;;;23.40;11.88;;;;;;;25.11;53.10;95135.13;5067841;28;20054;-89
2022/09/10 08:57:40;;;;;;;22.98;10.98;;;;;;;24.54;52.80;95073.84;5066743;28;20206;-89
2022/09/10 09:00:11;;;;;;;20.88;11.00;;;;;;;24.62;53.08;95059.25;5066586;28;20593;-89
2022/09/10 09:02:48;;;;;;;19.35;11.88;;;;;;;24.95;52.86;95108.16;5067017;28;20563;-89
2022/09/10 09:05:20;;;;;;;25.42;12.45;;;;;;;25.03;52.12;95091.97;5085271;28;20048;-90
2022/09/10 09:07:47;;;;;;;18.80;11.68;;;;;;;25.51;51.73;95134.47;5058501;28;20075;-90
2022/09/10 09:10:24;;;;;;;22.50;11.68;;;;;;;25.49;51.78;95130.56;5060967;28;20594;-90
2022/09/10 09:12:56;;;;;;;29.60;12.18;;;;;;;25.51;51.51;95130.97;5086184;28;20687;-89
2022/09/10 09:16:03;;;;;;;18.08;11.40;;;;;;;24.11;51.96;94932.25;5066801;28;20111;-89
2022/09/10 09:19:09;;;;;;;24.17;11.63;;;;;;;25.45;51.89;95116.97;5086221;28;20447;-89
2022/09/10 09:21:54;;;;;;;30.88;12.27;;;;;;;24.61;51.27;94970.91;5085741;28;20707;-89
2022/09/10 09:24:31;;;;;;;17.67;10.68;;;;;;;25.66;51.22;95106.38;5066543;28;20048;-89
2022/09/10 09:27:08;;;;;;;22.15;11.18;;;;;;;25.78;51.08;95107.28;5065725;28;20144;-90
2022/09/10 09:30:01;;;;;;;20.63;10.50;;;;;;;25.46;51.15;95028.16;5065973;28;20040;-90
2022/09/10 09:32:32;;;;;;;16.52;10.68;;;;;;;25.31;52.08;95008.22;5067891;28;20561;-90
2022/09/10 09:35:35;;;;;;;22.10;11.33;;;;;;;25.33;51.86;95005.91;5066817;28;20054;-90
2022/09/10 09:38:19;;;;;;;28.52;12.50;;;;;;;25.88;52.17;95084.88;5055674;28;20067;-90
2022/09/10 09:40:48;;;;;;;22.80;12.15;;;;;;;25.10;52.07;94954.47;5063550;28;20075;-90
2022/09/10 09:43:51;;;;;;;21.38;10.85;;;;;;;25.98;51.70;95079.53;5066822;28;20039;-90
2022/09/10 09:46:19;;;;;;;15.25;10.70;;;;;;;25.72;51.69;95019.91;5066417;28;20063;-91
2022/09/10 09:48:46;;;;;;;17.05;10.98;;;;;;;25.60;51.99;95014.75;5086212;28;20044;-91
2022/09/10 09:51:20;;;;;;;17.58;11.43;;;;;;;26.04;51.69;95061.75;5074468;28;20105;-90
2022/09/10 09:53:48;;;;;;;18.10;10.95;;;;;;;25.58;51.62;94968.97;5072104;28;20044;-90
2022/09/10 09:56:23;;;;;;;16.55;11.02;;;;;;;26.14;51.05;95054.84;5070359;28;20059;-90
2022/09/10 09:58:49;;;;;;;23.48;11.10;;;;;;;26.22;50.63;95006.75;5070302;28;20043;-90
2022/09/10 10:01:18;;;;;;;19.00;11.40;;;;;;;25.35;48.95;94821.72;5069650;28;20142;-90
2022/09/10 10:03:51;;;;;;;26.35;10.68;;;;;;;26.94;49.18;95044.16;5069743;28;20047;-90
2022/09/10 10:06:20;;;;;;;28.77;11.05;;;;;;;26.10;47.49;94812.94;5070092;28;20688;-90
2022/09/10 10:08:56;;;;;;;22.98;10.90;;;;;;;28.64;45.34;95026.25;5070356;28;20060;-90
2022/09/10 10:11:38;;;;;;;16.70;9.55;;;;;;;29.30;43.23;94984.69;5088574;28;20043;-90
2022/09/10 10:14:19;;;;;;;18.98;10.57;;;;;;;30.67;41.18;95032.22;5069636;28;20391;-89
2022/09/10 10:16:50;;;;;;;19.02;9.05;;;;;;;30.83;38.27;94944.06;5069350;28;20126;-91
2022/09/10 10:19:37;;;;;;;14.25;8.63;;;;;;;32.17;36.25;94981.81;5087485;28;20039;-90
2022/09/10 10:22:17;;;;;;;24.95;8.90;;;;;;;33.26;35.95;95006.53;5069326;28;20144;-91
2022/09/10 10:24:46;;;;;;;17.13;8.52;;;;;;;33.01;34.64;94873.59;5069152;28;20486;-91
2022/09/10 10:27:26;;;;;;;23.05;8.48;;;;;;;34.34;33.55;94994.72;5067644;28;20036;-91
2022/09/10 10:29:53;;;;;;;15.13;7.45;;;;;;;34.96;32.68;94998.25;5068880;28;20541;-91
2022/09/10 10:32:19;;;;;;;15.30;6.68;;;;;;;35.14;31.88;95002.09;5068436;28;20048;-91
2022/09/10 10:35:00;;;;;;;18.08;6.88;;;;;;;35.40;30.82;94994.66;5069989;28;20047;-91
2022/09/10 10:37:41;;;;;;;19.83;7.38;;;;;;;35.41;31.40;94993.47;5070613;28;20116;-91
2022/09/10 10:40:25;;;;;;;19.27;7.30;;;;;;;35.41;31.93;94990.69;5068892;28;20069;-91
2022/09/10 10:43:21;;;;;;;16.70;7.63;;;;;;;35.45;31.26;94988.63;5086879;28;20422;-91
2022/09/10 10:46:03;;;;;;;21.33;8.02;;;;;;;35.19;30.61;94918.84;5068719;28;20048;-91
2022/09/10 10:48:50;;;;;;;20.40;7.10;;;;;;;35.81;30.92;94984.81;5069062;28;20561;-91
2022/09/10 10:51:34;;;;;;;20.42;8.13;;;;;;;35.40;29.94;94985.66;5068008;28;20047;-91
2022/09/10 10:54:36;;;;;;;14.57;7.05;;;;;;;35.75;30.39;94981.06;5072277;28;20498;-90
2022/09/10 10:57:26;;;;;;;21.50;6.75;;;;;;;35.84;29.72;94961.88;5069179;28;20063;-91
2022/09/10 11:00:12;;;;;;;15.60;7.63;;;;;;;35.96;30.01;94966.59;5068172;28;20040;-91
2022/09/10 11:02:44;;;;;;;21.40;6.82;;;;;;;36.14;30.26;94955.78;5069551;28;20115;-89
2022/09/10 11:05:31;;;;;;;17.67;7.03;;;;;;;35.85;30.38;94957.91;5068915;28;20048;-89
2022/09/10 11:08:06;;;;;;;15.75;7.38;;;;;;;34.22;31.17;94794.50;5069048;28;20565;-90
2022/09/10 11:11:01;;;;;;;13.80;6.45;;;;;;;35.11;31.40;94955.31;5087314;28;20040;-90
2022/09/10 11:13:43;;;;;;;17.88;7.07;;;;;;;34.26;31.97;94875.78;5057060;28;20059;-90
2022/09/10 11:16:20;;;;;;;14.35;6.82;;;;;;;33.87;32.33;94903.50;5068925;28;20924;-90
2022/09/10 11:19:00;;;;;;;20.70;7.53;;;;;;;33.15;32.89;94956.50;5070165;28;20135;-90
2022/09/10 11:21:42;;;;;;;21.80;6.30;;;;;;;31.49;35.43;95003.16;5068815;28;20051;-90
2022/09/10 11:24:42;;;;;;;23.08;8.13;;;;;;;31.49;35.43;95003.16;5069782;28;20075;-90
2022/09/10 11:27:14;;;;;;;30.95;9.73;;;;;;;26.46;58.44;95050.47;5071399;28;20437;-90
2022/09/10 11:30:11;;;;;;;27.55;8.63;;;;;;;24.59;64.87;94949.59;5091618;28;20562;-93
2022/09/10 11:33:00;;;;;;;42.45;12.43;;;;;;;23.47;70.11;95079.28;5087836;28;20237;-84
2022/09/10 11:35:30;;;;;;;24.50;7.93;;;;;;;21.81;70.46;95095.16;5075419;28;20051;-85